Time;durP1;ratioP1;P1;durP2;ratioP2;P2;SDS_P1;SDS_P2;PMS_P1;PMS_P2;Temp;Humidity;BMP_temperature;BMP_pressure;BME280_temperature;BME280_humidity;BME280_pressure;Samples;Min_cycle;Max_cycle;Signal;HPM_P1;HPM_P2
2024/01/07 00:01:08;;;;;;;11.20;6.20;;;;;;;-3.33;81.56;99686.05;108269;1261;69219;-79
2024/01/07 00:03:36;;;;;;;9.70;6.70;;;;;;;-3.31;81.75;99688.88;106198;1260;71449;-79
2024/01/07 00:06:04;;;;;;;8.70;6.50;;;;;;;-3.30;81.99;99696.64;105999;1261;59581;-79
2024/01/07 00:08:31;;;;;;;9.60;6.90;;;;;;;-3.32;81.76;99693.96;106076;1260;59647;-78
2024/01/07 00:10:59;;;;;;;11.20;7.00;;;;;;;-3.40;81.42;99696.96;106103;1256;71772;-78
2024/01/07 00:13:27;;;;;;;11.80;6.80;;;;;;;-3.44;81.27;99697.02;106127;1260;68140;-79
2024/01/07 00:15:55;;;;;;;8.20;5.80;;;;;;;-3.36;81.12;99702.70;105720;1260;71229;-77
2024/01/07 00:18:24;;;;;;;10.90;6.30;;;;;;;-3.27;81.02;99699.24;105562;1260;59570;-78
2024/01/07 00:20:52;;;;;;;9.60;6.70;;;;;;;-3.30;80.84;99700.64;105679;1256;60056;-79
2024/01/07 00:23:20;;;;;;;9.60;6.80;;;;;;;-3.36;81.08;99703.20;105426;1256;73092;-78
2024/01/07 00:25:47;;;;;;;10.90;6.80;;;;;;;-3.41;81.06;99697.04;105604;1256;69989;-78
2024/01/07 00:28:15;;;;;;;10.20;6.60;;;;;;;-3.47;80.95;99704.77;105524;1259;72716;-78
2024/01/07 00:30:43;;;;;;;9.50;6.30;;;;;;;-3.51;80.88;99708.14;105724;1256;60869;-77
2024/01/07 00:33:11;;;;;;;9.70;6.40;;;;;;;-3.46;80.50;99705.77;105565;1258;61125;-78
2024/01/07 00:35:38;;;;;;;9.80;6.20;;;;;;;-3.41;80.16;99704.45;105411;1256;73888;-78
2024/01/07 00:38:06;;;;;;;9.00;6.60;;;;;;;-3.45;80.10;99703.66;105484;1257;70133;-78
2024/01/07 00:40:33;;;;;;;11.50;6.80;;;;;;;-3.56;79.95;99699.54;105533;1256;71445;-76
2024/01/07 00:43:01;;;;;;;10.60;7.10;;;;;;;-3.67;80.05;99696.30;105429;1257;60633;-76
2024/01/07 00:45:28;;;;;;;11.40;7.00;;;;;;;-3.73;80.31;99697.63;105542;1259;60640;-77
2024/01/07 00:47:55;;;;;;;13.30;7.60;;;;;;;-3.74;80.38;99698.91;106095;1256;73826;-79
2024/01/07 00:50:23;;;;;;;11.50;7.10;;;;;;;-3.68;80.26;99697.90;106607;1256;72424;-80
2024/01/07 00:52:51;;;;;;;8.80;6.10;;;;;;;-3.61;80.25;99698.79;106172;1260;72453;-79
2024/01/07 00:55:19;;;;;;;10.50;6.70;;;;;;;-3.63;80.59;99705.79;107483;1256;60316;-80
2024/01/07 00:57:46;;;;;;;10.00;6.60;;;;;;;-3.67;80.60;99705.50;109026;1256;58729;-80
2024/01/07 01:00:14;;;;;;;10.90;6.80;;;;;;;-3.74;80.71;99709.11;108388;1259;72720;-80
2024/01/07 01:02:42;;;;;;;10.20;6.30;;;;;;;-3.80;80.84;99715.97;106381;1256;70052;-79
2024/01/07 01:05:09;;;;;;;9.90;6.30;;;;;;;-3.84;80.95;99717.61;106302;1262;72644;-79
2024/01/07 01:07:37;;;;;;;10.10;6.50;;;;;;;-3.80;80.74;99716.50;105730;1257;60617;-79
2024/01/07 01:10:05;;;;;;;12.20;6.70;;;;;;;-3.74;80.52;99713.42;105627;1262;62524;-79
2024/01/07 01:12:33;;;;;;;9.70;7.20;;;;;;;-3.77;80.89;99716.35;106014;1257;72684;-79
2024/01/07 01:15:00;;;;;;;11.90;7.50;;;;;;;-3.82;81.13;99715.94;106315;1256;70584;-80
2024/01/07 01:17:29;;;;;;;11.20;7.90;;;;;;;-3.88;81.17;99717.29;106475;1257;72978;-79
2024/01/07 01:19:56;;;;;;;12.90;8.40;;;;;;;-3.94;81.37;99714.44;105725;1258;60529;-78
2024/01/07 01:22:24;;;;;;;12.20;8.00;;;;;;;-3.98;81.54;99710.65;106504;1256;61091;-79
2024/01/07 01:24:53;;;;;;;10.90;7.20;;;;;;;-3.91;81.32;99711.55;106868;1257;76118;-77
2024/01/07 01:27:22;;;;;;;11.40;7.40;;;;;;;-3.86;80.92;99714.90;107677;1256;68734;-79
2024/01/07 01:29:49;;;;;;;10.90;7.60;;;;;;;-3.93;81.01;99719.62;108117;1256;71078;-79
2024/01/07 01:32:17;;;;;;;12.90;8.10;;;;;;;-4.04;81.10;99720.29;105735;1256;60448;-80
2024/01/07 01:34:44;;;;;;;12.30;6.80;;;;;;;-4.12;81.18;99729.38;105727;1256;60455;-80
2024/01/07 01:37:12;;;;;;;12.60;7.50;;;;;;;-4.20;81.47;99728.36;105608;1256;73868;-79
2024/01/07 01:39:41;;;;;;;10.90;6.30;;;;;;;-4.19;81.47;99722.42;105709;1257;70089;-79
2024/01/07 01:42:08;;;;;;;12.10;7.00;;;;;;;-4.13;81.21;99717.11;105746;1256;71401;-79
2024/01/07 01:44:36;;;;;;;11.20;7.10;;;;;;;-4.18;81.41;99723.77;105527;1257;60425;-79
2024/01/07 01:47:03;;;;;;;10.30;7.50;;;;;;;-4.27;81.72;99719.36;105624;1259;60441;-81
2024/01/07 01:49:31;;;;;;;13.70;6.80;;;;;;;-4.35;81.60;99725.28;105673;1257;73936;-81
2024/01/07 01:51:59;;;;;;;11.30;7.60;;;;;;;-4.45;81.65;99720.05;106487;1256;69964;-81
2024/01/07 01:54:26;;;;;;;11.40;7.20;;;;;;;-4.49;81.75;99722.70;108989;1256;73939;-80
2024/01/07 01:56:54;;;;;;;11.50;7.10;;;;;;;-4.43;81.56;99714.77;108679;1256;59610;-80
2024/01/07 01:59:22;;;;;;;11.70;7.90;;;;;;;-4.42;81.56;99721.98;106927;1256;59169;-79
2024/01/07 02:01:49;;;;;;;10.30;7.00;;;;;;;-4.49;81.66;99719.90;107445;1256;73859;-80
2024/01/07 02:04:17;;;;;;;11.80;7.40;;;;;;;-4.59;81.78;99716.38;108333;1256;71286;-80
2024/01/07 02:06:45;;;;;;;10.00;7.90;;;;;;;-4.66;81.94;99724.02;107683;1256;72663;-80
2024/01/07 02:09:13;;;;;;;10.10;6.60;;;;;;;-4.71;82.12;99725.98;106000;1259;60441;-80
2024/01/07 02:11:40;;;;;;;12.70;7.30;;;;;;;-4.66;82.06;99720.33;105820;1262;60420;-80
2024/01/07 02:14:08;;;;;;;9.30;6.70;;;;;;;-4.59;81.79;99713.11;106063;1257;72992;-80
2024/01/07 02:16:35;;;;;;;11.50;7.20;;;;;;;-4.64;81.71;99723.89;105834;1262;69202;-79
2024/01/07 02:19:03;;;;;;;11.10;7.70;;;;;;;-4.70;81.98;99724.88;105989;1259;72748;-82
2024/01/07 02:21:30;;;;;;;11.80;7.80;;;;;;;-4.76;81.97;99726.00;105511;1259;60530;-83
2024/01/07 02:23:58;;;;;;;13.10;7.90;;;;;;;-4.83;82.07;99724.80;105654;1256;60777;-81
2024/01/07 02:26:27;;;;;;;11.70;7.10;;;;;;;-4.87;82.03;99723.61;105649;1256;72558;-82
2024/01/07 02:28:57;;;;;;;11.90;6.50;;;;;;;-4.80;81.83;99719.64;105731;1259;69216;-82
2024/01/07 02:31:24;;;;;;;11.40;7.80;;;;;;;-4.75;81.63;99723.19;105663;1256;71426;-81
2024/01/07 02:33:52;;;;;;;9.40;6.30;;;;;;;-4.78;81.87;99723.67;105818;1262;60541;-81
2024/01/07 02:36:20;;;;;;;11.60;7.80;;;;;;;-4.83;81.84;99727.55;105965;1257;60451;-81
2024/01/07 02:38:47;;;;;;;12.70;7.50;;;;;;;-4.90;81.88;99728.58;106225;1260;73878;-79
2024/01/07 02:41:15;;;;;;;10.20;6.70;;;;;;;-4.95;82.03;99731.02;106813;1257;71144;-81
2024/01/07 02:43:42;;;;;;;9.80;6.80;;;;;;;-4.98;81.65;99729.60;107006;1257;71147;-80
2024/01/07 02:46:09;;;;;;;11.50;6.80;;;;;;;-4.90;81.45;99732.17;106855;1258;60576;-78
2024/01/07 02:48:37;;;;;;;10.20;7.10;;;;;;;-4.83;81.36;99737.05;107525;1256;60337;-78
2024/01/07 02:51:06;;;;;;;10.90;7.00;;;;;;;-4.86;81.81;99741.14;109044;1256;72645;-80
2024/01/07 02:53:33;;;;;;;9.70;6.10;;;;;;;-4.87;81.71;99737.60;108865;1256;68772;-80
2024/01/07 02:56:01;;;;;;;11.50;6.60;;;;;;;-4.89;81.63;99741.33;107055;1257;71411;-80
2024/01/07 02:58:28;;;;;;;11.30;6.80;;;;;;;-4.94;81.46;99736.67;106425;1257;60526;-79
2024/01/07 03:00:56;;;;;;;9.00;5.80;;;;;;;-5.00;81.15;99734.89;105884;1262;60522;-79
2024/01/07 03:03:23;;;;;;;10.70;7.60;;;;;;;-4.97;81.01;99734.42;105779;1256;72668;-79
2024/01/07 03:05:51;;;;;;;8.40;5.60;;;;;;;-4.95;80.72;99732.20;105766;1256;70350;-79
2024/01/07 03:08:19;;;;;;;8.50;5.60;;;;;;;-5.01;80.71;99737.33;105711;1257;71328;-80
2024/01/07 03:10:46;;;;;;;9.40;5.80;;;;;;;-5.09;80.83;99737.55;105656;1257;60469;-76
2024/01/07 03:33:51;;;;;;;11.40;7.20;;;;;;;-5.54;80.39;99762.64;104814;1289;599987;-79
2024/01/07 03:36:19;;;;;;;8.60;6.10;;;;;;;-5.47;80.06;99766.50;105396;1269;59724;-80
2024/01/07 03:38:47;;;;;;;8.60;6.20;;;;;;;-5.49;80.04;99768.46;105370;1264;60003;-79
2024/01/07 03:41:18;;;;;;;11.80;5.90;;;;;;;-5.57;80.26;99771.92;106576;1255;72297;-78
2024/01/07 03:43:46;;;;;;;9.40;6.60;;;;;;;-5.64;80.22;99771.19;105961;1256;70174;-76
2024/01/07 03:46:15;;;;;;;9.90;6.00;;;;;;;-5.72;80.21;99775.98;106786;1257;71385;-78
2024/01/07 03:48:42;;;;;;;8.20;5.90;;;;;;;-5.78;80.17;99781.94;109024;1251;408556;-77
2024/01/07 03:51:10;;;;;;;8.20;5.90;;;;;;;-5.83;80.21;99784.39;108941;1254;58730;-78
2024/01/07 03:53:38;;;;;;;8.10;5.90;;;;;;;-5.77;79.61;99786.18;106965;1251;70905;-77
2024/01/07 03:56:06;;;;;;;8.40;6.10;;;;;;;-5.72;79.45;99790.15;106783;1251;69966;-79
2024/01/07 03:58:34;;;;;;;9.60;6.30;;;;;;;-5.80;79.46;99790.98;107521;1251;71401;-78
2024/01/07 04:01:02;;;;;;;9.80;6.20;;;;;;;-5.92;79.70;99790.61;106780;1257;59726;-82
2024/01/07 04:03:30;;;;;;;10.30;6.60;;;;;;;-5.99;79.75;99792.35;106052;1253;60507;-79
2024/01/07 04:05:58;;;;;;;10.60;6.30;;;;;;;-6.08;79.68;99795.43;106381;1253;70651;-80
2024/01/07 04:08:25;;;;;;;14.40;6.60;;;;;;;-6.17;79.73;99789.40;106606;1256;70035;-79
2024/01/07 04:10:52;;;;;;;9.80;5.80;;;;;;;-6.17;79.56;99793.39;106294;1251;71389;-79
2024/01/07 04:13:20;;;;;;;9.60;5.60;;;;;;;-6.09;79.41;99794.79;106264;1257;59714;-78
2024/01/07 04:15:47;;;;;;;9.30;6.30;;;;;;;-6.14;79.20;99799.30;106263;1257;59595;-75
2024/01/07 04:18:16;;;;;;;10.00;6.30;;;;;;;-6.22;79.65;99805.81;106031;1251;71686;-75
2024/01/07 04:20:44;;;;;;;11.30;6.10;;;;;;;-6.29;79.50;99805.77;106360;1259;68918;-78
2024/01/07 04:23:11;;;;;;;9.60;6.00;;;;;;;-6.40;79.24;99806.33;106338;1251;72389;-77
2024/01/07 04:25:40;;;;;;;14.10;6.20;;;;;;;-6.51;79.44;99812.62;106177;1254;59653;-77
2024/01/07 04:28:09;;;;;;;10.20;5.80;;;;;;;-6.59;79.67;99814.63;106401;1251;59532;-78
2024/01/07 04:30:37;;;;;;;10.80;6.40;;;;;;;-6.53;79.61;99823.56;107111;1251;72560;-81
2024/01/07 04:33:04;;;;;;;8.60;5.70;;;;;;;-6.45;79.39;99828.93;106715;1257;69181;-78
2024/01/07 04:35:32;;;;;;;9.60;5.90;;;;;;;-6.47;79.53;99827.32;106869;1254;70573;-78
2024/01/07 04:37:59;;;;;;;9.30;5.40;;;;;;;-6.53;79.74;99829.75;107734;1251;59698;-79
2024/01/07 04:40:29;;;;;;;9.60;5.40;;;;;;;-6.58;79.46;99836.14;107699;1251;60036;-78
2024/01/07 04:42:56;;;;;;;8.30;5.70;;;;;;;-6.63;79.57;99837.20;108315;1256;71947;-78
2024/01/07 04:45:24;;;;;;;9.60;5.50;;;;;;;-6.68;79.50;99835.85;108928;1254;70791;-76
2024/01/07 04:47:51;;;;;;;8.30;5.50;;;;;;;-6.64;79.09;99837.06;108013;1254;70368;-72
2024/01/07 04:50:19;;;;;;;10.30;4.80;;;;;;;-6.54;79.16;99834.79;107276;1255;59148;-77
2024/01/07 04:52:47;;;;;;;8.20;5.50;;;;;;;-6.54;79.11;99838.05;107359;1257;59872;-78
2024/01/07 04:55:15;;;;;;;7.30;5.30;;;;;;;-6.57;79.05;99833.88;106838;1254;73563;-80
2024/01/07 04:57:42;;;;;;;8.70;5.00;;;;;;;-6.59;79.19;99847.23;106721;1253;69465;-78
2024/01/07 05:00:11;;;;;;;7.80;5.40;;;;;;;-6.65;78.85;99843.63;106721;1257;72668;-78
2024/01/07 05:02:38;;;;;;;7.90;5.50;;;;;;;-6.72;78.88;99844.58;106289;1256;59672;-79
2024/01/07 05:05:08;;;;;;;8.10;5.50;;;;;;;-6.79;78.68;99846.56;105937;1254;59510;-79
2024/01/07 05:07:35;;;;;;;11.70;6.90;;;;;;;-6.85;78.73;99843.67;106119;1257;73089;-79
2024/01/07 05:10:04;;;;;;;7.10;5.00;;;;;;;-6.80;78.47;99844.02;107078;1254;70368;-79
2024/01/07 05:12:31;;;;;;;7.60;5.30;;;;;;;-6.74;78.10;99847.41;106823;1257;71283;-79
2024/01/07 05:14:59;;;;;;;7.90;4.90;;;;;;;-6.78;77.99;99847.73;107119;1254;61304;-79
2024/01/07 05:17:26;;;;;;;10.10;6.10;;;;;;;-6.83;78.40;99854.11;106161;1255;59701;-77
2024/01/07 05:19:54;;;;;;;7.50;5.30;;;;;;;-6.87;78.23;99855.64;106225;1254;71934;-77
2024/01/07 05:22:22;;;;;;;9.00;5.30;;;;;;;-6.97;78.03;99854.81;106108;1257;69215;-79
2024/01/07 05:24:49;;;;;;;8.80;5.30;;;;;;;-7.06;78.19;99862.02;107226;1253;72930;-77
2024/01/07 05:27:17;;;;;;;8.50;4.70;;;;;;;-7.12;78.06;99862.39;107043;1255;60361;-75
2024/01/07 05:29:46;;;;;;;11.30;5.40;;;;;;;-7.07;77.90;99861.70;106197;1256;59975;-73
2024/01/07 05:32:13;;;;;;;9.30;5.30;;;;;;;-7.01;77.67;99863.39;106156;1256;71811;-77
2024/01/07 05:34:41;;;;;;;8.40;5.10;;;;;;;-7.01;78.07;99862.35;106175;1256;68688;-76
2024/01/07 05:37:08;;;;;;;10.10;4.90;;;;;;;-7.03;78.17;99864.14;106100;1253;70611;-76
2024/01/07 05:39:36;;;;;;;7.10;5.00;;;;;;;-7.05;78.11;99867.48;106436;1258;60039;-76
2024/01/07 05:42:04;;;;;;;8.40;5.20;;;;;;;-7.10;77.99;99867.80;108914;1250;59222;-78
2024/01/07 05:44:31;;;;;;;8.80;5.50;;;;;;;-7.15;77.63;99868.66;109377;1253;74226;-77
2024/01/07 05:46:59;;;;;;;8.30;4.90;;;;;;;-7.18;77.66;99871.19;107181;1254;69073;-81
2024/01/07 05:49:26;;;;;;;7.40;4.50;;;;;;;-7.08;77.65;99869.15;107503;1254;71573;-79
2024/01/07 05:51:54;;;;;;;7.60;4.60;;;;;;;-6.98;77.12;99872.20;107532;1254;59754;-78
2024/01/07 05:54:22;;;;;;;8.30;5.00;;;;;;;-7.00;76.99;99869.72;107144;1251;59633;-79
2024/01/07 05:56:50;;;;;;;8.00;4.60;;;;;;;-7.05;77.25;99870.23;106245;1256;72735;-79
2024/01/07 05:59:17;;;;;;;13.40;5.50;;;;;;;-7.08;77.27;99868.81;106106;1260;69475;-79
2024/01/07 06:01:45;;;;;;;10.00;5.40;;;;;;;-7.13;77.13;99855.20;106381;1254;71098;-82
2024/01/07 06:04:12;;;;;;;7.80;4.70;;;;;;;-7.19;77.24;99859.52;107119;1251;60608;-80
2024/01/07 06:06:40;;;;;;;8.50;5.20;;;;;;;-7.23;77.04;99862.10;106346;1257;60309;-84
2024/01/07 06:09:08;;;;;;;8.10;4.40;;;;;;;-7.21;76.98;99863.89;107217;1251;70882;-85
2024/01/07 06:11:36;;;;;;;10.90;4.50;;;;;;;-7.12;76.82;99859.48;106447;1260;68177;-86
2024/01/07 06:14:05;;;;;;;6.90;4.50;;;;;;;-7.14;76.83;99865.70;106694;1256;71152;-85
2024/01/07 06:16:32;;;;;;;7.00;4.00;;;;;;;-7.20;76.89;99869.54;106740;1260;59629;-84
2024/01/07 06:19:00;;;;;;;7.10;4.60;;;;;;;-7.24;76.88;99877.59;107262;1252;59691;-85
2024/01/07 06:21:28;;;;;;;7.80;4.90;;;;;;;-7.27;77.00;99875.13;107942;1251;73427;-82
2024/01/07 06:23:55;;;;;;;8.10;5.10;;;;;;;-7.31;76.84;99876.27;107406;1251;70498;-84
2024/01/07 06:26:23;;;;;;;7.00;4.30;;;;;;;-7.34;76.67;99881.89;107146;1251;73128;-84
2024/01/07 06:28:50;;;;;;;9.40;5.00;;;;;;;-7.35;76.51;99880.73;107088;1254;61060;-84
2024/01/07 06:31:18;;;;;;;6.20;3.70;;;;;;;-7.25;76.07;99880.05;108027;1251;59538;-83
2024/01/07 06:33:45;;;;;;;8.90;4.20;;;;;;;-7.14;75.99;99874.84;107221;1256;70523;-82
2024/01/07 06:36:17;;;;;;;6.60;3.40;;;;;;;-7.02;75.94;99876.99;106669;1253;68822;-84
2024/01/07 06:38:44;;;;;;;7.20;3.80;;;;;;;-6.96;75.69;99874.91;108739;1251;71262;-84
2024/01/07 06:41:12;;;;;;;6.30;3.60;;;;;;;-6.99;75.72;99877.23;109563;1255;58027;-86
2024/01/07 06:43:40;;;;;;;7.50;3.70;;;;;;;-7.03;75.66;99882.39;109530;1251;58371;-84
2024/01/07 06:46:07;;;;;;;8.50;3.80;;;;;;;-7.08;75.37;99879.45;108331;1251;72658;-80
2024/01/07 06:48:35;;;;;;;8.00;4.30;;;;;;;-7.16;75.02;99874.88;107089;1251;69991;-81
2024/01/07 06:51:03;;;;;;;4.50;3.20;;;;;;;-7.22;75.00;99875.30;106287;1257;71281;-82
2024/01/07 06:53:31;;;;;;;6.70;4.00;;;;;;;-7.28;75.11;99880.67;106861;1257;59755;-81
2024/01/07 06:55:58;;;;;;;5.20;3.20;;;;;;;-7.35;75.15;99885.19;106338;1257;60337;-81
2024/01/07 06:58:25;;;;;;;7.20;3.70;;;;;;;-7.38;75.24;99887.35;106819;1254;73008;-80
2024/01/07 07:00:53;;;;;;;5.50;3.30;;;;;;;-7.30;75.01;99892.60;106411;1256;69272;-80
2024/01/07 07:03:20;;;;;;;7.40;3.60;;;;;;;-7.17;75.23;99886.45;106266;1256;71470;-79
2024/01/07 07:05:48;;;;;;;5.40;3.30;;;;;;;-7.07;74.91;99882.16;106637;1253;61203;-81
2024/01/07 07:08:16;;;;;;;6.40;3.70;;;;;;;-7.06;74.84;99884.20;106370;1260;60032;-81
2024/01/07 07:10:43;;;;;;;6.30;3.20;;;;;;;-7.09;74.94;99887.92;107074;1254;71811;-80
2024/01/07 07:13:12;;;;;;;6.70;3.90;;;;;;;-7.10;74.93;99891.40;107931;1254;70483;-81
2024/01/07 07:15:40;;;;;;;5.60;3.70;;;;;;;-7.09;75.22;99893.80;108632;1253;71116;-79
2024/01/07 07:18:07;;;;;;;8.30;3.90;;;;;;;-7.13;74.42;99898.38;105963;1254;60136;-81
2024/01/07 07:20:35;;;;;;;5.60;3.70;;;;;;;-7.19;74.25;99899.80;106121;1254;60072;-81
2024/01/07 07:23:03;;;;;;;6.90;4.30;;;;;;;-7.25;74.23;99902.93;106058;1253;71470;-81
2024/01/07 07:25:30;;;;;;;6.40;4.00;;;;;;;-7.36;74.03;99902.59;106391;1254;69364;-80
2024/01/07 07:27:58;;;;;;;5.30;3.90;;;;;;;-7.34;74.23;99899.60;106349;1256;71413;-77
2024/01/07 07:30:25;;;;;;;8.00;4.10;;;;;;;-7.20;73.91;99901.21;106345;1253;61661;-80
2024/01/07 07:32:53;;;;;;;5.70;3.70;;;;;;;-7.04;74.24;99901.04;106775;1254;59621;-81
2024/01/07 07:35:21;;;;;;;5.70;3.60;;;;;;;-6.98;74.37;99906.48;107102;1254;71835;-80
2024/01/07 07:37:48;;;;;;;7.20;4.20;;;;;;;-6.98;74.30;99901.98;109343;1254;68919;-81
2024/01/07 07:40:16;;;;;;;8.10;4.30;;;;;;;-6.97;74.56;99905.05;108680;1257;72428;-81
2024/01/07 07:42:43;;;;;;;6.80;4.10;;;;;;;-6.94;74.39;99904.81;106811;1257;60539;-80
2024/01/07 07:45:11;;;;;;;7.50;4.80;;;;;;;-6.95;73.94;99905.36;107079;1255;60440;-81
2024/01/07 07:47:44;;;;;;;7.70;4.50;;;;;;;-6.99;73.83;99903.24;107588;1254;72706;-80
2024/01/07 07:50:13;;;;;;;6.10;4.20;;;;;;;-7.04;73.71;99907.90;106298;1261;68790;-82
2024/01/07 07:52:44;;;;;;;7.30;4.30;;;;;;;-7.07;73.86;99909.39;106602;1260;72485;-79
2024/01/07 07:55:12;;;;;;;9.10;5.20;;;;;;;-7.12;73.64;99912.98;106730;1255;60302;-80
2024/01/07 07:57:40;;;;;;;7.80;4.40;;;;;;;-7.07;73.54;99913.17;105752;1254;60462;-79
2024/01/07 08:00:12;;;;;;;9.20;4.10;;;;;;;-6.95;73.48;99910.17;105892;1259;72726;-80
2024/01/07 08:02:40;;;;;;;10.90;4.30;;;;;;;-6.85;72.97;99914.31;105850;1254;72959;-82
2024/01/07 08:05:08;;;;;;;8.50;4.40;;;;;;;-6.81;72.94;99912.59;105930;1257;74975;-82
2024/01/07 08:07:35;;;;;;;6.30;4.10;;;;;;;-6.81;73.34;99909.35;106155;1254;60553;-80
2024/01/07 08:10:03;;;;;;;7.50;4.30;;;;;;;-6.84;73.44;99914.09;105948;1254;60489;-82
2024/01/07 08:12:31;;;;;;;10.40;5.20;;;;;;;-6.87;72.86;99918.69;106091;1255;72824;-79
2024/01/07 08:14:59;;;;;;;10.30;5.50;;;;;;;-6.91;72.61;99915.70;106356;1254;70008;-79
2024/01/07 08:17:26;;;;;;;8.30;5.10;;;;;;;-6.89;73.20;99919.96;105965;1257;73120;-78
2024/01/07 08:19:56;;;;;;;12.40;4.80;;;;;;;-6.86;73.25;99924.33;105700;1254;60514;-77
2024/01/07 08:22:24;;;;;;;9.30;5.20;;;;;;;-6.83;73.15;99924.92;105871;1259;60399;-79
2024/01/07 08:24:51;;;;;;;9.90;5.20;;;;;;;-6.82;73.15;99923.84;106538;1254;73048;-78
2024/01/07 08:27:19;;;;;;;8.40;4.50;;;;;;;-6.83;72.87;99919.06;107168;1260;68739;-78
2024/01/07 08:29:46;;;;;;;6.90;4.60;;;;;;;-6.83;72.64;99915.44;106254;1254;75057;-79
2024/01/07 08:32:14;;;;;;;9.00;5.30;;;;;;;-6.71;72.13;99917.58;107495;1254;60377;-79
2024/01/07 08:34:41;;;;;;;8.90;4.60;;;;;;;-6.61;71.86;99919.29;109136;1254;58793;-78
2024/01/07 08:39:08;;;;;;;8.30;5.00;;;;;;;-6.48;71.35;99908.33;103452;1296;599761;-77
2024/01/07 08:41:35;;;;;;;7.70;4.80;;;;;;;-6.55;71.42;99913.23;105766;1272;60155;-77
2024/01/07 08:44:03;;;;;;;8.80;5.10;;;;;;;-6.58;71.31;99914.73;105211;1270;59309;-80
2024/01/07 08:46:30;;;;;;;7.30;4.90;;;;;;;-6.58;71.70;99915.92;105106;1269;70669;-79
2024/01/07 08:48:58;;;;;;;10.00;5.00;;;;;;;-6.57;71.59;99918.80;105824;1257;69887;-80
2024/01/07 08:51:38;;;;;;;8.60;5.60;;;;;;;-6.60;71.22;99922.02;105776;1257;72671;-80
2024/01/07 08:54:39;;;;;;;7.50;4.70;;;;;;;-6.71;70.63;99918.28;106172;1257;59682;-79
2024/01/07 08:57:08;;;;;;;8.60;5.10;;;;;;;-6.80;70.52;99920.83;106448;1259;59105;-78
2024/01/07 08:59:36;;;;;;;8.30;4.50;;;;;;;-6.84;70.52;99909.11;107087;1254;70801;-79
2024/01/07 09:02:05;;;;;;;8.60;4.90;;;;;;;-6.91;70.30;99905.58;107420;1254;70079;-78
2024/01/07 09:04:33;;;;;;;6.70;4.30;;;;;;;-6.90;69.99;99898.63;107916;1254;72488;-79
2024/01/07 09:07:01;;;;;;;8.00;5.20;;;;;;;-6.85;69.70;99904.15;108169;1254;61680;-79
2024/01/07 09:09:29;;;;;;;6.90;5.20;;;;;;;-6.80;69.94;99896.73;108047;1254;58177;-78
2024/01/07 09:11:58;;;;;;;8.10;4.90;;;;;;;-6.75;70.22;99901.19;108027;1254;71476;-80
2024/01/07 09:14:26;;;;;;;9.50;4.70;;;;;;;-6.75;69.99;99902.42;107527;1254;69990;-78
2024/01/07 09:16:57;;;;;;;8.20;4.80;;;;;;;-6.83;70.03;99895.97;106900;1256;71203;-78
2024/01/07 09:19:25;;;;;;;8.40;4.90;;;;;;;-6.87;70.02;99898.19;106357;1254;59557;-79
2024/01/07 09:21:52;;;;;;;8.80;5.10;;;;;;;-6.92;70.05;99892.30;106758;1254;60127;-79
2024/01/07 09:24:20;;;;;;;8.70;5.10;;;;;;;-6.94;69.81;99893.25;107103;1256;71756;-80
2024/01/07 09:26:48;;;;;;;11.10;5.60;;;;;;;-6.94;69.83;99889.30;108100;1254;70302;-81
2024/01/07 09:29:15;;;;;;;7.80;4.70;;;;;;;-6.96;69.91;99890.05;109222;1254;70462;-80
2024/01/07 09:31:43;;;;;;;8.80;4.60;;;;;;;-6.97;70.25;99886.81;108510;1257;59241;-79
2024/01/07 09:34:11;;;;;;;10.00;5.30;;;;;;;-6.94;70.13;99885.68;107942;1254;59141;-79
2024/01/07 09:36:39;;;;;;;8.30;4.90;;;;;;;-6.82;69.51;99891.12;107563;1254;71525;-80
2024/01/07 09:39:06;;;;;;;8.80;4.70;;;;;;;-6.71;69.23;99887.79;107835;1254;68595;-80
2024/01/07 09:41:59;;;;;;;8.00;4.50;;;;;;;-6.63;69.06;99889.77;107002;1255;71584;-81
2024/01/07 09:44:27;;;;;;;8.00;4.50;;;;;;;-6.57;69.21;99889.86;106417;1262;59756;-83
2024/01/07 09:46:55;;;;;;;9.40;4.80;;;;;;;-6.57;69.21;99889.85;106585;1254;59557;-82
2024/01/07 09:49:23;;;;;;;8.60;5.20;;;;;;;-6.56;68.81;99887.23;107279;1259;73087;-82
2024/01/07 09:51:53;;;;;;;10.90;6.00;;;;;;;-6.57;68.69;99880.41;107078;1254;68445;-82
2024/01/07 09:54:20;;;;;;;9.60;5.30;;;;;;;-6.60;68.47;99878.95;107338;1259;71929;-81
2024/01/07 09:56:55;;;;;;;10.20;5.50;;;;;;;-6.61;68.30;99885.73;106789;1254;59753;-81
2024/01/07 09:59:23;;;;;;;10.20;5.40;;;;;;;-6.68;67.92;99884.92;106743;1260;59629;-81
2024/01/07 10:01:51;;;;;;;11.50;5.10;;;;;;;-6.73;68.32;99882.02;107055;1254;71928;-81
2024/01/07 10:04:23;;;;;;;11.60;6.00;;;;;;;-6.77;68.05;99880.25;106797;1254;70066;-81
2024/01/07 10:06:54;;;;;;;10.70;5.50;;;;;;;-6.79;68.15;99875.17;107034;1259;72643;-81
2024/01/07 10:09:23;;;;;;;8.10;4.70;;;;;;;-6.68;68.29;99877.19;108049;1256;62480;-81
2024/01/07 10:11:52;;;;;;;9.10;5.10;;;;;;;-6.53;68.26;99882.66;106957;1255;59697;-80
2024/01/07 10:14:22;;;;;;;10.40;5.40;;;;;;;-6.40;68.06;99884.08;106973;1262;71842;-82
2024/01/07 10:16:50;;;;;;;9.60;5.30;;;;;;;-6.37;67.68;99878.77;108316;1254;69263;-82
2024/01/07 10:19:24;;;;;;;9.40;5.00;;;;;;;-6.39;67.88;99876.11;107262;1257;70347;-82
2024/01/07 10:22:02;;;;;;;11.80;5.20;;;;;;;-6.44;67.55;99869.73;109034;1254;58049;-80
2024/01/07 10:24:40;;;;;;;10.20;6.20;;;;;;;-6.48;67.62;99875.42;108599;1256;59641;-80
2024/01/07 10:27:08;;;;;;;11.20;6.10;;;;;;;-6.53;67.46;99879.02;107701;1256;73103;-79
2024/01/07 10:29:36;;;;;;;10.60;6.10;;;;;;;-6.54;67.62;99875.81;106858;1259;70009;-79
2024/01/07 10:32:05;;;;;;;9.20;5.40;;;;;;;-6.55;67.57;99875.50;107397;1258;73739;-80
2024/01/07 10:34:35;;;;;;;8.40;5.70;;;;;;;-6.56;67.78;99874.15;106794;1254;60323;-81
2024/01/07 10:37:08;;;;;;;8.50;5.40;;;;;;;-6.58;67.49;99870.77;106784;1254;60771;-81
2024/01/07 10:39:37;;;;;;;9.90;5.10;;;;;;;-6.63;67.30;99871.14;107460;1255;73357;-82
2024/01/07 10:42:04;;;;;;;9.50;5.50;;;;;;;-6.66;67.20;99871.07;106643;1257;68995;-81
2024/01/07 10:44:32;;;;;;;9.60;5.20;;;;;;;-6.56;66.96;99868.14;107765;1254;71991;-84
2024/01/07 10:47:07;;;;;;;8.50;4.30;;;;;;;-6.44;66.93;99873.22;107839;1255;62563;-82
2024/01/07 10:49:35;;;;;;;8.10;5.40;;;;;;;-6.38;66.67;99868.65;106976;1257;59040;-83
2024/01/07 10:52:05;;;;;;;7.80;4.70;;;;;;;-6.35;66.66;99868.73;108101;1256;72832;-83
2024/01/07 10:54:34;;;;;;;9.30;5.80;;;;;;;-6.37;66.91;99865.55;106661;1256;69979;-84
2024/01/07 10:57:28;;;;;;;8.30;5.50;;;;;;;-6.38;66.85;99864.70;106080;1262;72794;-80
2024/01/07 10:59:55;;;;;;;9.30;5.60;;;;;;;-6.43;66.44;99864.20;106958;1256;60344;-82
2024/01/07 11:02:23;;;;;;;9.20;6.20;;;;;;;-6.46;66.76;99866.55;107417;1257;59830;-74
2024/01/07 11:05:08;;;;;;;8.20;5.40;;;;;;;-6.47;66.80;99864.34;106874;1255;72743;-74
2024/01/07 11:07:40;;;;;;;10.00;6.00;;;;;;;-6.53;66.45;99859.41;109180;1256;68737;-76
2024/01/07 11:10:19;;;;;;;9.80;5.50;;;;;;;-6.61;66.59;99860.22;105861;1257;71284;-81
2024/01/07 11:12:58;;;;;;;10.50;5.60;;;;;;;-6.75;66.11;99854.52;105971;1259;59763;-79
2024/01/07 11:15:47;;;;;;;9.90;5.80;;;;;;;-6.88;66.50;99852.09;108547;1255;59263;-81
2024/01/07 11:18:22;;;;;;;9.70;5.10;;;;;;;-6.80;66.29;99849.05;108581;1254;71646;-81
2024/01/07 11:20:50;;;;;;;9.80;4.50;;;;;;;-6.74;66.26;99851.55;106479;1262;69234;-81
2024/01/07 11:23:30;;;;;;;11.80;4.90;;;;;;;-6.72;66.01;99854.43;106488;1257;71892;-80
2024/01/07 11:26:02;;;;;;;10.50;6.00;;;;;;;-6.75;66.44;99852.27;106439;1256;59678;-80
2024/01/07 11:28:58;;;;;;;12.50;6.10;;;;;;;-6.78;66.80;99854.30;106799;1257;60229;-79
2024/01/07 11:31:38;;;;;;;10.10;5.10;;;;;;;-6.81;66.94;99855.78;106885;1255;71789;-79
2024/01/07 11:34:06;;;;;;;11.20;6.60;;;;;;;-6.86;67.16;99854.59;107671;1256;70670;-79
2024/01/07 11:36:36;;;;;;;11.20;5.60;;;;;;;-6.91;67.36;99854.42;107675;1256;71382;-80
2024/01/07 11:39:08;;;;;;;9.30;5.90;;;;;;;-6.93;67.41;99854.98;107197;1257;59575;-80
2024/01/07 11:41:37;;;;;;;8.30;5.30;;;;;;;-6.96;67.01;99847.88;108276;1256;62223;-81
2024/01/07 11:44:05;;;;;;;10.40;6.10;;;;;;;-7.03;66.88;99845.35;108353;1256;72425;-80
2024/01/07 11:46:34;;;;;;;12.20;7.00;;;;;;;-7.09;67.02;99841.30;108722;1257;68087;-79
2024/01/07 11:49:02;;;;;;;12.70;6.00;;;;;;;-7.06;67.12;99844.13;108624;1256;73811;-78
2024/01/07 11:51:31;;;;;;;9.90;6.10;;;;;;;-6.96;67.02;99843.02;108785;1256;60410;-79